sensor_id;sensor_type;location;lat;lon;timestamp;pressure;altitude;pressure_sealevel;temperature;humidity
55590;BME280;41452;42.780;23.116;2024-03-22T00:00:38;94438.09;;;4.05;68.05
55590;BME280;41452;42.780;23.116;2024-03-22T00:03:04;94439.63;;;3.99;68.38
55590;BME280;41452;42.780;23.116;2024-03-22T00:05:29;94394.19;;;3.67;68.57
55590;BME280;41452;42.780;23.116;2024-03-22T00:07:54;94421.88;;;3.81;68.62
55590;BME280;41452;42.780;23.116;2024-03-22T00:10:20;94439.44;;;3.79;69.36
55590;BME280;41452;42.780;23.116;2024-03-22T00:12:45;94436.25;;;3.77;69.43
55590;BME280;41452;42.780;23.116;2024-03-22T00:15:10;94437.88;;;3.78;69.02
55590;BME280;41452;42.780;23.116;2024-03-22T00:17:36;94434.63;;;3.76;69.28
55590;BME280;41452;42.780;23.116;2024-03-22T00:20:01;94434.63;;;3.76;69.06
55590;BME280;41452;42.780;23.116;2024-03-22T00:22:26;94423.56;;;3.68;68.95
55590;BME280;41452;42.780;23.116;2024-03-22T00:24:52;94433.75;;;3.69;68.97
55590;BME280;41452;42.780;23.116;2024-03-22T00:27:17;94433.75;;;3.69;68.51
55590;BME280;41452;42.780;23.116;2024-03-22T00:29:42;94437.78;;;3.72;67.95
55590;BME280;41452;42.780;23.116;2024-03-22T00:32:08;94428.09;;;3.59;67.19
55590;BME280;41452;42.780;23.116;2024-03-22T00:34:36;94431.66;;;3.58;67.46
55590;BME280;41452;42.780;23.116;2024-03-22T00:37:02;94435.88;;;3.59;67.40
55590;BME280;41452;42.780;23.116;2024-03-22T00:39:27;94432.63;;;3.57;67.62
55590;BME280;41452;42.780;23.116;2024-03-22T00:41:52;94435.63;;;3.54;67.69
55590;BME280;41452;42.780;23.116;2024-03-22T00:44:18;94434.31;;;3.43;67.74
55590;BME280;41452;42.780;23.116;2024-03-22T00:46:43;94435.38;;;3.49;66.78
55590;BME280;41452;42.780;23.116;2024-03-22T00:49:08;94431.03;;;3.34;68.11
55590;BME280;41452;42.780;23.116;2024-03-22T00:51:34;94431.19;;;3.33;67.58
55590;BME280;41452;42.780;23.116;2024-03-22T00:53:59;94436.94;;;3.28;68.34
55590;BME280;41452;42.780;23.116;2024-03-22T00:56:24;94394.84;;;2.96;68.91
55590;BME280;41452;42.780;23.116;2024-03-22T00:58:50;94432.22;;;3.17;69.15
55590;BME280;41452;42.780;23.116;2024-03-22T01:01:15;94413.75;;;2.90;70.22
55590;BME280;41452;42.780;23.116;2024-03-22T01:03:40;94433.75;;;3.11;69.64
55590;BME280;41452;42.780;23.116;2024-03-22T01:06:06;94429.19;;;2.98;70.27
55590;BME280;41452;42.780;23.116;2024-03-22T01:08:32;94446.38;;;2.99;70.55
55590;BME280;41452;42.780;23.116;2024-03-22T01:10:58;94443.03;;;3.05;70.28
55590;BME280;41452;42.780;23.116;2024-03-22T01:13:23;94450.91;;;3.12;69.70
55590;BME280;41452;42.780;23.116;2024-03-22T01:15:48;94445.28;;;3.09;69.62
55590;BME280;41452;42.780;23.116;2024-03-22T01:18:14;94426.97;;;2.95;69.31
55590;BME280;41452;42.780;23.116;2024-03-22T01:20:39;94431.72;;;2.92;69.55
55590;BME280;41452;42.780;23.116;2024-03-22T01:23:05;94448.00;;;2.85;69.94
55590;BME280;41452;42.780;23.116;2024-03-22T01:25:30;94403.19;;;2.62;70.03
55590;BME280;41452;42.780;23.116;2024-03-22T01:27:56;94444.16;;;2.81;69.86
55590;BME280;41452;42.780;23.116;2024-03-22T01:30:21;94439.88;;;2.74;70.38
55590;BME280;41452;42.780;23.116;2024-03-22T01:32:47;94453.09;;;2.79;70.52
55590;BME280;41452;42.780;23.116;2024-03-22T01:35:12;94422.31;;;2.61;70.44
55590;BME280;41452;42.780;23.116;2024-03-22T01:37:37;94417.97;;;2.61;69.74
55590;BME280;41452;42.780;23.116;2024-03-22T01:40:03;94392.19;;;2.45;70.31
55590;BME280;41452;42.780;23.116;2024-03-22T01:42:30;94443.63;;;2.71;70.93
55590;BME280;41452;42.780;23.116;2024-03-22T01:44:55;94435.75;;;2.64;70.86
55590;BME280;41452;42.780;23.116;2024-03-22T01:47:21;94438.88;;;2.75;70.24
55590;BME280;41452;42.780;23.116;2024-03-22T01:49:47;94442.19;;;2.69;70.87
55590;BME280;41452;42.780;23.116;2024-03-22T01:52:14;94440.22;;;2.71;70.37
55590;BME280;41452;42.780;23.116;2024-03-22T01:54:39;94438.53;;;2.63;71.10
55590;BME280;41452;42.780;23.116;2024-03-22T01:57:05;94433.53;;;2.61;71.02
55590;BME280;41452;42.780;23.116;2024-03-22T01:59:31;94430.94;;;2.61;71.24
55590;BME280;41452;42.780;23.116;2024-03-22T02:01:57;94428.25;;;2.55;72.06
55590;BME280;41452;42.780;23.116;2024-03-22T02:04:23;94417.22;;;2.38;72.25
55590;BME280;41452;42.780;23.116;2024-03-22T02:06:48;94381.38;;;2.12;72.45
55590;BME280;41452;42.780;23.116;2024-03-22T02:09:14;94409.44;;;2.38;71.89
55590;BME280;41452;42.780;23.116;2024-03-22T02:11:40;94436.28;;;2.60;70.58
55590;BME280;41452;42.780;23.116;2024-03-22T02:14:06;94437.09;;;2.60;70.76
55590;BME280;41452;42.780;23.116;2024-03-22T02:16:31;94431.09;;;2.60;71.26
55590;BME280;41452;42.780;23.116;2024-03-22T02:18:56;94435.56;;;2.51;72.36
55590;BME280;41452;42.780;23.116;2024-03-22T02:21:22;94404.53;;;2.28;72.28
55590;BME280;41452;42.780;23.116;2024-03-22T02:23:47;94440.41;;;2.54;72.20
55590;BME280;41452;42.780;23.116;2024-03-22T02:26:12;94396.50;;;2.23;72.39
55590;BME280;41452;42.780;23.116;2024-03-22T02:28:38;94440.94;;;2.50;72.16
55590;BME280;41452;42.780;23.116;2024-03-22T02:31:03;94446.91;;;2.50;71.70
55590;BME280;41452;42.780;23.116;2024-03-22T02:33:29;94443.06;;;2.46;72.19
55590;BME280;41452;42.780;23.116;2024-03-22T02:35:54;94450.41;;;2.42;72.30
55590;BME280;41452;42.780;23.116;2024-03-22T02:38:20;94441.91;;;2.34;73.04
55590;BME280;41452;42.780;23.116;2024-03-22T02:40:47;94452.59;;;2.31;72.92
55590;BME280;41452;42.780;23.116;2024-03-22T02:43:13;94454.22;;;2.32;72.85
55590;BME280;41452;42.780;23.116;2024-03-22T02:45:39;94448.59;;;2.28;72.64
55590;BME280;41452;42.780;23.116;2024-03-22T02:48:05;94453.88;;;2.35;72.64
55590;BME280;41452;42.780;23.116;2024-03-22T02:50:34;94459.69;;;2.37;71.86
55590;BME280;41452;42.780;23.116;2024-03-22T02:53:00;94456.66;;;2.33;72.11
55590;BME280;41452;42.780;23.116;2024-03-22T02:55:25;94461.00;;;2.33;72.17
55590;BME280;41452;42.780;23.116;2024-03-22T02:57:51;94473.34;;;2.31;72.12
55590;BME280;41452;42.780;23.116;2024-03-22T03:00:17;94348.03;;;1.56;71.46
55590;BME280;41452;42.780;23.116;2024-03-22T03:02:43;94470.91;;;2.29;71.35
55590;BME280;41452;42.780;23.116;2024-03-22T03:05:12;94464.94;;;2.28;71.89
55590;BME280;41452;42.780;23.116;2024-03-22T03:07:37;94455.97;;;2.16;71.91
55590;BME280;41452;42.780;23.116;2024-03-22T03:10:03;94457.94;;;2.14;72.28
55590;BME280;41452;42.780;23.116;2024-03-22T03:12:28;94465.81;;;2.21;72.49
55590;BME280;41452;42.780;23.116;2024-03-22T03:14:53;94479.91;;;2.18;72.26
55590;BME280;41452;42.780;23.116;2024-03-22T03:17:19;94473.78;;;2.19;71.77
55590;BME280;41452;42.780;23.116;2024-03-22T03:19:44;94471.25;;;2.11;72.69
55590;BME280;41452;42.780;23.116;2024-03-22T03:22:10;94475.34;;;2.05;72.89
55590;BME280;41452;42.780;23.116;2024-03-22T03:24:35;94472.56;;;2.07;73.01
55590;BME280;41452;42.780;23.116;2024-03-22T03:27:00;94489.78;;;2.00;73.63
55590;BME280;41452;42.780;23.116;2024-03-22T03:29:27;94476.38;;;1.96;73.38
55590;BME280;41452;42.780;23.116;2024-03-22T03:31:53;94471.16;;;2.04;72.99
55590;BME280;41452;42.780;23.116;2024-03-22T03:34:18;94482.19;;;1.98;73.08
55590;BME280;41452;42.780;23.116;2024-03-22T03:36:45;94483.97;;;1.98;73.80
55590;BME280;41452;42.780;23.116;2024-03-22T03:39:10;94489.78;;;2.00;73.29
55590;BME280;41452;42.780;23.116;2024-03-22T03:41:35;94490.47;;;1.94;73.80
55590;BME280;41452;42.780;23.116;2024-03-22T03:44:01;94486.16;;;1.63;74.81
55590;BME280;41452;42.780;23.116;2024-03-22T03:46:26;94491.00;;;1.66;74.82
55590;BME280;41452;42.780;23.116;2024-03-22T03:48:51;94497.69;;;1.83;74.63
55590;BME280;41452;42.780;23.116;2024-03-22T03:51:17;94408.25;;;1.26;74.70
55590;BME280;41452;42.780;23.116;2024-03-22T03:53:42;94490.59;;;1.77;75.31
55590;BME280;41452;42.780;23.116;2024-03-22T03:56:07;94496.84;;;1.83;75.04
55590;BME280;41452;42.780;23.116;2024-03-22T03:58:33;94498.66;;;1.82;74.65
55590;BME280;41452;42.780;23.116;2024-03-22T04:00:58;94499.19;;;1.78;74.32
55590;BME280;41452;42.780;23.116;2024-03-22T04:03:23;94504.69;;;1.75;74.56
55590;BME280;41452;42.780;23.116;2024-03-22T04:05:59;94504.25;;;1.71;74.65
55590;BME280;41452;42.780;23.116;2024-03-22T04:08:29;94507.47;;;1.73;74.82
55590;BME280;41452;42.780;23.116;2024-03-22T04:15:53;94501.22;;;1.28;76.74
55590;BME280;41452;42.780;23.116;2024-03-22T04:18:18;94506.13;;;1.14;78.03
55590;BME280;41452;42.780;23.116;2024-03-22T04:20:56;94521.03;;;1.44;77.01
55590;BME280;41452;42.780;23.116;2024-03-22T04:23:22;94526.34;;;1.50;76.85
55590;BME280;41452;42.780;23.116;2024-03-22T04:25:58;94536.06;;;1.48;75.91
55590;BME280;41452;42.780;23.116;2024-03-22T04:28:24;94504.63;;;1.28;75.87
55590;BME280;41452;42.780;23.116;2024-03-22T04:33:26;94530.03;;;1.25;76.78
55590;BME280;41452;42.780;23.116;2024-03-22T04:35:51;94540.84;;;1.28;77.38
55590;BME280;41452;42.780;23.116;2024-03-22T04:38:17;94530.19;;;1.23;77.67
55590;BME280;41452;42.780;23.116;2024-03-22T04:40:43;94545.00;;;1.38;77.53
55590;BME280;41452;42.780;23.116;2024-03-22T04:43:08;94543.84;;;1.48;77.09
55590;BME280;41452;42.780;23.116;2024-03-22T04:45:34;94541.94;;;1.42;77.95
55590;BME280;41452;42.780;23.116;2024-03-22T04:48:01;94520.94;;;1.29;78.25
55590;BME280;41452;42.780;23.116;2024-03-22T04:50:27;94542.19;;;1.56;77.96
55590;BME280;41452;42.780;23.116;2024-03-22T04:52:52;94542.47;;;1.61;77.42
55590;BME280;41452;42.780;23.116;2024-03-22T04:55:17;94552.59;;;1.70;76.71
55590;BME280;41452;42.780;23.116;2024-03-22T04:57:43;94554.06;;;1.73;77.09
55590;BME280;41452;42.780;23.116;2024-03-22T05:00:08;94554.06;;;1.73;77.07
55590;BME280;41452;42.780;23.116;2024-03-22T05:02:34;94561.00;;;1.49;78.34
55590;BME280;41452;42.780;23.116;2024-03-22T05:04:59;94563.97;;;1.69;78.28
55590;BME280;41452;42.780;23.116;2024-03-22T05:07:25;94568.09;;;1.79;79.06
55590;BME280;41452;42.780;23.116;2024-03-22T05:09:50;94554.59;;;1.92;78.54
55590;BME280;41452;42.780;23.116;2024-03-22T05:12:15;94559.28;;;1.96;78.97
55590;BME280;41452;42.780;23.116;2024-03-22T05:14:41;94565.50;;;2.10;78.64
55590;BME280;41452;42.780;23.116;2024-03-22T05:17:06;94566.19;;;2.27;78.24
55590;BME280;41452;42.780;23.116;2024-03-22T05:19:32;94559.03;;;2.29;78.74
55590;BME280;41452;42.780;23.116;2024-03-22T05:21:57;94569.13;;;2.47;78.23
55590;BME280;41452;42.780;23.116;2024-03-22T05:24:22;94571.34;;;2.50;77.60
55590;BME280;41452;42.780;23.116;2024-03-22T05:26:48;94577.44;;;2.57;78.10
55590;BME280;41452;42.780;23.116;2024-03-22T05:29:13;94573.22;;;2.79;77.79
55590;BME280;41452;42.780;23.116;2024-03-22T05:31:47;94581.19;;;2.93;77.27
55590;BME280;41452;42.780;23.116;2024-03-22T05:34:13;94573.97;;;3.18;76.70
55590;BME280;41452;42.780;23.116;2024-03-22T05:36:40;94576.31;;;3.28;77.13
55590;BME280;41452;42.780;23.116;2024-03-22T05:39:05;94575.41;;;3.35;75.61
55590;BME280;41452;42.780;23.116;2024-03-22T05:41:30;94577.19;;;3.50;74.90
55590;BME280;41452;42.780;23.116;2024-03-22T05:43:56;94581.38;;;3.66;74.63
55590;BME280;41452;42.780;23.116;2024-03-22T05:46:21;94585.56;;;3.81;74.42
55590;BME280;41452;42.780;23.116;2024-03-22T05:48:46;94576.66;;;3.91;74.19
55590;BME280;41452;42.780;23.116;2024-03-22T05:51:14;94557.84;;;3.89;73.44
55590;BME280;41452;42.780;23.116;2024-03-22T05:53:39;94586.34;;;4.18;72.93
55590;BME280;41452;42.780;23.116;2024-03-22T05:56:05;94585.25;;;4.28;73.10
55590;BME280;41452;42.780;23.116;2024-03-22T05:58:30;94586.38;;;4.40;72.62
55590;BME280;41452;42.780;23.116;2024-03-22T06:00:56;94595.09;;;4.54;70.50
55590;BME280;41452;42.780;23.116;2024-03-22T06:03:21;94584.94;;;4.59;71.13
55590;BME280;41452;42.780;23.116;2024-03-22T06:05:47;94589.31;;;4.80;67.18
55590;BME280;41452;42.780;23.116;2024-03-22T06:08:13;94585.16;;;4.86;66.01
55590;BME280;41452;42.780;23.116;2024-03-22T06:10:38;94587.41;;;4.95;66.17
55590;BME280;41452;42.780;23.116;2024-03-22T06:13:03;94566.41;;;4.97;66.16
55590;BME280;41452;42.780;23.116;2024-03-22T06:15:29;94592.59;;;5.17;67.31
55590;BME280;41452;42.780;23.116;2024-03-22T06:17:54;94593.59;;;5.16;67.49
55590;BME280;41452;42.780;23.116;2024-03-22T06:20:19;94593.88;;;5.00;65.82
55590;BME280;41452;42.780;23.116;2024-03-22T06:22:45;94586.81;;;5.22;65.31
55590;BME280;41452;42.780;23.116;2024-03-22T06:25:10;94595.75;;;5.41;65.70
55590;BME280;41452;42.780;23.116;2024-03-22T06:27:35;94591.59;;;5.53;65.02
55590;BME280;41452;42.780;23.116;2024-03-22T06:30:01;94594.28;;;5.31;65.52
55590;BME280;41452;42.780;23.116;2024-03-22T06:32:26;94591.69;;;5.31;66.95
55590;BME280;41452;42.780;23.116;2024-03-22T06:34:52;94599.09;;;5.34;64.84
55590;BME280;41452;42.780;23.116;2024-03-22T06:37:17;94595.22;;;5.59;64.52
55590;BME280;41452;42.780;23.116;2024-03-22T06:39:42;94596.44;;;5.63;65.88
55590;BME280;41452;42.780;23.116;2024-03-22T06:42:08;94603.13;;;5.79;66.51
55590;BME280;41452;42.780;23.116;2024-03-22T06:44:33;94603.94;;;5.72;66.73
55590;BME280;41452;42.780;23.116;2024-03-22T06:46:58;94614.34;;;5.72;66.25
55590;BME280;41452;42.780;23.116;2024-03-22T06:49:24;94614.44;;;5.93;66.13
55590;BME280;41452;42.780;23.116;2024-03-22T06:51:50;94614.63;;;5.91;66.72
55590;BME280;41452;42.780;23.116;2024-03-22T06:54:15;94616.09;;;6.00;66.09
55590;BME280;41452;42.780;23.116;2024-03-22T06:56:41;94614.94;;;6.09;65.66
55590;BME280;41452;42.780;23.116;2024-03-22T06:59:06;94618.72;;;6.07;66.80
55590;BME280;41452;42.780;23.116;2024-03-22T07:01:31;94625.31;;;5.96;67.75
55590;BME280;41452;42.780;23.116;2024-03-22T07:03:57;94559.13;;;5.49;67.58
55590;BME280;41452;42.780;23.116;2024-03-22T07:06:22;94628.59;;;6.25;66.47
55590;BME280;41452;42.780;23.116;2024-03-22T07:08:48;94629.09;;;6.49;65.54
55590;BME280;41452;42.780;23.116;2024-03-22T07:11:13;94626.06;;;6.45;64.57
55590;BME280;41452;42.780;23.116;2024-03-22T07:13:39;94627.44;;;6.41;66.25
55590;BME280;41452;42.780;23.116;2024-03-22T07:16:04;94632.09;;;6.45;66.57
55590;BME280;41452;42.780;23.116;2024-03-22T07:18:30;94630.31;;;6.66;65.52
55590;BME280;41452;42.780;23.116;2024-03-22T07:20:55;94628.50;;;6.60;66.09
55590;BME280;41452;42.780;23.116;2024-03-22T07:23:21;94592.16;;;6.45;64.03
55590;BME280;41452;42.780;23.116;2024-03-22T07:25:46;94624.50;;;6.91;64.90
55590;BME280;41452;42.780;23.116;2024-03-22T07:28:13;94627.94;;;6.84;66.65
55590;BME280;41452;42.780;23.116;2024-03-22T07:30:39;94636.78;;;7.03;63.01
55590;BME280;41452;42.780;23.116;2024-03-22T07:33:04;94632.16;;;7.26;63.95
55590;BME280;41452;42.780;23.116;2024-03-22T07:35:29;94632.34;;;7.31;62.43
55590;BME280;41452;42.780;23.116;2024-03-22T07:37:56;94602.44;;;7.13;62.43
55590;BME280;41452;42.780;23.116;2024-03-22T07:40:22;94604.22;;;7.33;63.44
55590;BME280;41452;42.780;23.116;2024-03-22T07:42:47;94569.47;;;7.19;63.14
55590;BME280;41452;42.780;23.116;2024-03-22T07:45:13;94624.09;;;7.47;63.52
55590;BME280;41452;42.780;23.116;2024-03-22T07:47:38;94623.84;;;7.69;63.17
55590;BME280;41452;42.780;23.116;2024-03-22T07:50:05;94629.44;;;7.86;61.81
55590;BME280;41452;42.780;23.116;2024-03-22T07:52:31;94624.72;;;8.08;62.17
55590;BME280;41452;42.780;23.116;2024-03-22T07:54:56;94627.88;;;8.23;63.24
55590;BME280;41452;42.780;23.116;2024-03-22T07:57:22;94627.47;;;8.26;61.13
55590;BME280;41452;42.780;23.116;2024-03-22T07:59:48;94627.69;;;8.25;60.52
55590;BME280;41452;42.780;23.116;2024-03-22T08:02:13;94624.97;;;8.38;61.27
55590;BME280;41452;42.780;23.116;2024-03-22T08:04:39;94630.03;;;8.33;60.25
55590;BME280;41452;42.780;23.116;2024-03-22T08:07:04;94633.47;;;8.33;59.28
55590;BME280;41452;42.780;23.116;2024-03-22T08:09:29;94625.56;;;8.47;59.97
55590;BME280;41452;42.780;23.116;2024-03-22T08:11:55;94623.16;;;8.45;62.65
55590;BME280;41452;42.780;23.116;2024-03-22T08:14:20;94587.47;;;8.19;59.89
55590;BME280;41452;42.780;23.116;2024-03-22T08:16:45;94628.72;;;8.62;59.42
55590;BME280;41452;42.780;23.116;2024-03-22T08:19:11;94629.66;;;8.74;57.13
55590;BME280;41452;42.780;23.116;2024-03-22T08:21:36;94620.75;;;8.75;58.76
55590;BME280;41452;42.780;23.116;2024-03-22T08:24:02;94626.19;;;8.81;58.33
55590;BME280;41452;42.780;23.116;2024-03-22T08:26:27;94623.28;;;8.96;58.75
55590;BME280;41452;42.780;23.116;2024-03-22T08:28:53;94608.00;;;8.86;55.23
55590;BME280;41452;42.780;23.116;2024-03-22T08:31:18;94616.84;;;8.91;55.93
55590;BME280;41452;42.780;23.116;2024-03-22T08:33:50;94612.34;;;8.99;55.90
55590;BME280;41452;42.780;23.116;2024-03-22T08:36:15;94613.97;;;9.00;56.34
55590;BME280;41452;42.780;23.116;2024-03-22T08:38:41;94616.19;;;9.21;57.26
55590;BME280;41452;42.780;23.116;2024-03-22T08:41:07;94609.25;;;9.52;56.63
55590;BME280;41452;42.780;23.116;2024-03-22T08:43:32;94615.00;;;9.42;53.08
55590;BME280;41452;42.780;23.116;2024-03-22T08:45:58;94619.25;;;9.43;54.23
55590;BME280;41452;42.780;23.116;2024-03-22T08:48:23;94610.72;;;9.48;53.23
55590;BME280;41452;42.780;23.116;2024-03-22T08:50:48;94609.19;;;9.59;55.26
55590;BME280;41452;42.780;23.116;2024-03-22T08:53:14;94617.22;;;9.45;54.94
55590;BME280;41452;42.780;23.116;2024-03-22T08:55:45;94612.59;;;9.41;54.11
55590;BME280;41452;42.780;23.116;2024-03-22T08:58:11;94616.38;;;9.70;53.19
55590;BME280;41452;42.780;23.116;2024-03-22T09:00:37;94580.78;;;9.56;55.64
55590;BME280;41452;42.780;23.116;2024-03-22T09:03:03;94616.63;;;9.80;53.24
55590;BME280;41452;42.780;23.116;2024-03-22T09:05:28;94606.06;;;10.05;53.22
55590;BME280;41452;42.780;23.116;2024-03-22T09:07:54;94596.69;;;10.16;52.77
55590;BME280;41452;42.780;23.116;2024-03-22T09:10:21;94606.75;;;10.01;54.17
55590;BME280;41452;42.780;23.116;2024-03-22T09:12:46;94601.94;;;9.98;51.43
55590;BME280;41452;42.780;23.116;2024-03-22T09:15:11;94606.00;;;10.12;51.29
55590;BME280;41452;42.780;23.116;2024-03-22T09:17:37;94597.53;;;10.10;51.14
55590;BME280;41452;42.780;23.116;2024-03-22T09:20:02;94600.31;;;10.15;53.41
55590;BME280;41452;42.780;23.116;2024-03-22T09:22:30;94600.91;;;9.99;52.40
55590;BME280;41452;42.780;23.116;2024-03-22T09:24:57;94593.28;;;10.27;52.88
55590;BME280;41452;42.780;23.116;2024-03-22T09:27:23;94590.22;;;10.49;55.27
55590;BME280;41452;42.780;23.116;2024-03-22T09:29:49;94593.25;;;10.76;54.72
55590;BME280;41452;42.780;23.116;2024-03-22T09:32:14;94569.91;;;10.56;50.28
55590;BME280;41452;42.780;23.116;2024-03-22T09:34:39;94575.56;;;10.83;51.68
55590;BME280;41452;42.780;23.116;2024-03-22T09:37:05;94585.84;;;10.85;51.42
55590;BME280;41452;42.780;23.116;2024-03-22T09:39:31;94558.31;;;10.76;51.16
55590;BME280;41452;42.780;23.116;2024-03-22T09:41:58;94589.88;;;10.99;50.04
55590;BME280;41452;42.780;23.116;2024-03-22T09:44:27;94581.31;;;11.04;51.07
55590;BME280;41452;42.780;23.116;2024-03-22T09:46:52;94552.03;;;10.89;51.26
55590;BME280;41452;42.780;23.116;2024-03-22T09:49:18;94580.66;;;11.09;49.76
55590;BME280;41452;42.780;23.116;2024-03-22T09:51:44;94568.72;;;10.94;48.56
55590;BME280;41452;42.780;23.116;2024-03-22T09:54:10;94575.84;;;11.06;50.37
55590;BME280;41452;42.780;23.116;2024-03-22T09:56:38;94571.59;;;11.16;50.58
55590;BME280;41452;42.780;23.116;2024-03-22T09:59:04;94566.69;;;11.20;48.81
55590;BME280;41452;42.780;23.116;2024-03-22T10:01:29;94565.41;;;11.58;52.07
55590;BME280;41452;42.780;23.116;2024-03-22T10:03:55;94564.63;;;11.57;50.01
55590;BME280;41452;42.780;23.116;2024-03-22T10:06:20;94556.41;;;11.42;48.53
55590;BME280;41452;42.780;23.116;2024-03-22T10:08:46;94565.97;;;11.60;48.63
55590;BME280;41452;42.780;23.116;2024-03-22T10:11:11;94558.44;;;11.64;47.76
55590;BME280;41452;42.780;23.116;2024-03-22T10:13:37;94526.69;;;11.30;46.85
55590;BME280;41452;42.780;23.116;2024-03-22T10:16:03;94554.66;;;11.83;46.77
55590;BME280;41452;42.780;23.116;2024-03-22T10:18:28;94559.75;;;11.90;45.73
55590;BME280;41452;42.780;23.116;2024-03-22T10:21:04;94545.16;;;11.70;48.31
55590;BME280;41452;42.780;23.116;2024-03-22T10:23:30;94552.50;;;11.56;46.55
55590;BME280;41452;42.780;23.116;2024-03-22T10:25:57;94555.56;;;11.65;47.60
55590;BME280;41452;42.780;23.116;2024-03-22T10:28:23;94553.97;;;11.64;46.67
55590;BME280;41452;42.780;23.116;2024-03-22T10:30:50;94539.88;;;11.94;47.09
55590;BME280;41452;42.780;23.116;2024-03-22T10:33:19;94544.66;;;11.97;47.78
55590;BME280;41452;42.780;23.116;2024-03-22T10:35:45;94536.41;;;12.05;46.59
55590;BME280;41452;42.780;23.116;2024-03-22T10:38:12;94506.03;;;11.74;46.52
55590;BME280;41452;42.780;23.116;2024-03-22T10:40:39;94511.16;;;11.80;44.84
55590;BME280;41452;42.780;23.116;2024-03-22T10:43:05;94540.22;;;11.97;47.61
55590;BME280;41452;42.780;23.116;2024-03-22T10:45:31;94533.16;;;11.74;45.97
55590;BME280;41452;42.780;23.116;2024-03-22T10:47:58;94528.59;;;12.10;46.29
55590;BME280;41452;42.780;23.116;2024-03-22T10:50:26;94517.59;;;12.42;45.71
55590;BME280;41452;42.780;23.116;2024-03-22T10:52:54;94520.47;;;12.58;46.96
55590;BME280;41452;42.780;23.116;2024-03-22T10:55:26;94511.91;;;12.33;44.50
55590;BME280;41452;42.780;23.116;2024-03-22T10:57:56;94504.13;;;12.10;44.90
55590;BME280;41452;42.780;23.116;2024-03-22T11:00:33;94520.06;;;12.03;43.72
55590;BME280;41452;42.780;23.116;2024-03-22T11:03:01;94515.81;;;12.02;44.91
55590;BME280;41452;42.780;23.116;2024-03-22T11:05:27;94513.63;;;11.99;45.14
55590;BME280;41452;42.780;23.116;2024-03-22T11:08:03;94496.28;;;12.15;45.39
55590;BME280;41452;42.780;23.116;2024-03-22T11:10:35;94475.28;;;12.32;44.61
55590;BME280;41452;42.780;23.116;2024-03-22T11:13:04;94493.97;;;12.47;43.49
55590;BME280;41452;42.780;23.116;2024-03-22T11:15:30;94463.63;;;11.99;44.31
55590;BME280;41452;42.780;23.116;2024-03-22T11:17:59;94453.38;;;12.14;44.06
55590;BME280;41452;42.780;23.116;2024-03-22T11:20:25;94461.63;;;12.35;43.68
55590;BME280;41452;42.780;23.116;2024-03-22T11:22:51;94486.88;;;12.65;44.08
55590;BME280;41452;42.780;23.116;2024-03-22T11:25:17;94486.88;;;12.65;43.04
55590;BME280;41452;42.780;23.116;2024-03-22T11:27:44;94482.91;;;12.79;41.29
55590;BME280;41452;42.780;23.116;2024-03-22T11:30:09;94487.28;;;12.57;41.80
55590;BME280;41452;42.780;23.116;2024-03-22T11:32:35;94467.41;;;12.66;40.96
55590;BME280;41452;42.780;23.116;2024-03-22T11:35:11;94481.38;;;12.49;41.05
55590;BME280;41452;42.780;23.116;2024-03-22T11:37:38;94439.22;;;12.49;41.52
55590;BME280;41452;42.780;23.116;2024-03-22T11:40:04;94474.16;;;12.96;40.88
55590;BME280;41452;42.780;23.116;2024-03-22T11:42:34;94437.28;;;12.96;40.68
55590;BME280;41452;42.780;23.116;2024-03-22T11:45:01;94468.44;;;12.99;40.75
55590;BME280;41452;42.780;23.116;2024-03-22T11:47:27;94468.75;;;13.02;41.06
55590;BME280;41452;42.780;23.116;2024-03-22T11:49:53;94464.13;;;12.76;40.43
55590;BME280;41452;42.780;23.116;2024-03-22T11:52:24;94457.09;;;12.81;40.62
55590;BME280;41452;42.780;23.116;2024-03-22T11:54:52;94452.09;;;13.02;40.38
55590;BME280;41452;42.780;23.116;2024-03-22T11:57:21;94450.16;;;13.14;40.97
55590;BME280;41452;42.780;23.116;2024-03-22T11:59:46;94446.19;;;12.94;40.03
55590;BME280;41452;42.780;23.116;2024-03-22T12:02:12;94443.03;;;12.92;40.72
55590;BME280;41452;42.780;23.116;2024-03-22T12:04:47;94441.69;;;12.90;40.53
55590;BME280;41452;42.780;23.116;2024-03-22T12:07:13;94434.25;;;12.87;39.72
55590;BME280;41452;42.780;23.116;2024-03-22T12:09:40;94436.81;;;12.65;40.93
55590;BME280;41452;42.780;23.116;2024-03-22T12:12:08;94433.16;;;12.66;40.28
55590;BME280;41452;42.780;23.116;2024-03-22T12:14:34;94424.13;;;12.62;39.44
55590;BME280;41452;42.780;23.116;2024-03-22T12:17:00;94433.16;;;12.66;39.88
55590;BME280;41452;42.780;23.116;2024-03-22T12:19:25;94428.75;;;12.54;40.07
55590;BME280;41452;42.780;23.116;2024-03-22T12:21:50;94427.41;;;12.69;41.51
55590;BME280;41452;42.780;23.116;2024-03-22T12:24:16;94428.50;;;12.39;40.10
55590;BME280;41452;42.780;23.116;2024-03-22T12:26:41;94406.16;;;12.25;41.01
55590;BME280;41452;42.780;23.116;2024-03-22T12:29:06;94418.38;;;12.31;40.67
55590;BME280;41452;42.780;23.116;2024-03-22T12:31:32;94373.41;;;11.87;41.04
55590;BME280;41452;42.780;23.116;2024-03-22T12:33:58;94417.66;;;12.35;40.64
55590;BME280;41452;42.780;23.116;2024-03-22T12:36:24;94419.56;;;12.74;40.58
55590;BME280;41452;42.780;23.116;2024-03-22T12:38:50;94412.91;;;12.88;41.47
55590;BME280;41452;42.780;23.116;2024-03-22T12:41:16;94411.28;;;12.65;39.39
55590;BME280;41452;42.780;23.116;2024-03-22T12:43:41;94410.13;;;12.61;38.94
55590;BME280;41452;42.780;23.116;2024-03-22T12:46:07;94408.31;;;12.62;39.69
55590;BME280;41452;42.780;23.116;2024-03-22T12:48:33;94407.50;;;12.78;39.69
55590;BME280;41452;42.780;23.116;2024-03-22T12:50:59;94404.50;;;12.91;39.01
55590;BME280;41452;42.780;23.116;2024-03-22T12:53:25;94401.41;;;12.94;39.17
55590;BME280;41452;42.780;23.116;2024-03-22T12:55:50;94401.84;;;12.86;38.91
55590;BME280;41452;42.780;23.116;2024-03-22T12:58:16;94406.75;;;13.00;38.49